Hovedside
METAR-TAF:

METAR-TAF

Lufthavner :

Bergen lufthavn. Flesland

Bergen, Norge

breddegrad: 60-17N, lengdegrad: 005-14E, høyde over havet: 5 m

Gjeldene værobservasjon

Denne rapporten ble laget for 17 minutter siden, klokken 06:20 UTC
Flau vind
Temperatur 2°C
Luftfuktighet 87%
Trykk 1019 hPa
Sikt 10 km eller mer
ingen skyer under 1500 m og ingen bygeskyer

METAR: ENBR 150620Z 00000KT CAVOK 02/M00 Q1019 NOSIG RMK WIND 1200FT 13006KT

Tid: 07:37 (06:37 UTC)

Varsel

Varsel gyldig fra 15. klokken 06 UTC til 16. klokken 06 UTC
Vind 3 kt fra skiftende retning
Sikt 10 km eller mer
Få skyer i en høyde av 3000 ft

TAF: ENBR 1506/1606 VRB03KT 9999 FEW030

Værobservasjoner og værvarsel for over 4000 flyplasser (METAR- og TAF-rapporter).

Tilgjengelige stasjoner er representert av de røde og gule prikkene på kartet.

Hold musepekeren over prikken for å se navnet på stasjonen.

Klikk så for å se værobservasjoner og -varsler.

For å forandre kartet kan du klikke på den grønne knappen med svart kryss for å zoome inn, på den grønne knappen med strek for å zoome ut, eller på de grønne pilene for å se tilstøtende kart.


METAR-TAF: